createdAt,value
2018-11-20T00:02:35.493Z,15.97
2018-11-20T00:05:58.799Z,13.97
2018-11-20T00:08:53.296Z,13.90
2018-11-20T00:11:53.394Z,13.80
2018-11-20T00:14:47.748Z,16.17
2018-11-20T00:17:38.566Z,15.23
2018-11-20T00:20:26.486Z,14.50
2018-11-20T00:23:13.575Z,15.72
2018-11-20T00:26:00.601Z,17.93
2018-11-20T00:28:47.370Z,17.80
2018-11-20T00:31:35.426Z,16.80
2018-11-20T00:34:12.905Z,16.23
2018-11-20T00:37:00.473Z,19.47
2018-11-20T00:40:00.627Z,19.83
2018-11-20T00:42:59.789Z,17.62
2018-11-20T00:45:47.816Z,16.25
2018-11-20T00:48:32.773Z,17.27
2018-11-20T00:51:19.673Z,15.63
2018-11-20T00:54:00.168Z,14.30
2018-11-20T00:56:51.589Z,19.10
2018-11-20T00:59:31.961Z,17.67
2018-11-20T01:02:23.224Z,14.87
2018-11-20T01:05:11.229Z,17.03
2018-11-20T01:07:59.576Z,14.80
2018-11-20T01:10:41.030Z,16.90
2018-11-20T01:13:19.381Z,16.67
2018-11-20T01:16:06.911Z,15.70
2018-11-20T01:18:45.626Z,17.93
2018-11-20T01:21:53.223Z,17.60
2018-11-20T01:24:39.794Z,19.60
2018-11-20T01:27:27.787Z,18.60
2018-11-20T01:30:16.855Z,22.87
2018-11-20T01:33:12.943Z,19.97
2018-11-20T01:35:56.029Z,19.83
2018-11-20T01:38:44.514Z,20.50
2018-11-20T01:41:31.723Z,20.87
2018-11-20T01:44:34.799Z,20.17
2018-11-20T01:47:25.825Z,21.00
2018-11-20T01:52:50.470Z,20.97
2018-11-20T01:55:28.740Z,20.50
2018-11-20T01:58:19.591Z,14.03
2018-11-20T02:01:07.011Z,22.87
2018-11-20T02:04:04.953Z,20.53
2018-11-20T02:06:52.760Z,19.13
2018-11-20T02:09:50.004Z,20.20
2018-11-20T02:12:40.916Z,22.73
2018-11-20T02:15:29.010Z,18.80
2018-11-20T02:18:34.057Z,20.67
2018-11-20T02:21:34.211Z,20.75
2018-11-20T02:24:13.262Z,20.10
2018-11-20T02:27:04.820Z,21.30
2018-11-20T02:29:54.877Z,18.63
2018-11-20T02:32:39.408Z,20.40
2018-11-20T02:35:22.964Z,20.13
2018-11-20T02:38:14.211Z,21.70
2018-11-20T02:41:02.500Z,20.27
2018-11-20T02:43:48.679Z,17.83
2018-11-20T02:46:42.687Z,22.10
2018-11-20T02:49:42.905Z,17.57
2018-11-20T02:52:37.148Z,16.83
2018-11-20T02:55:17.948Z,18.20
2018-11-20T02:58:12.056Z,17.97
2018-11-20T03:00:59.201Z,16.87
2018-11-20T03:03:45.820Z,21.73
2018-11-20T03:06:27.272Z,17.47
2018-11-20T03:09:18.315Z,21.50
2018-11-20T03:12:06.367Z,23.02
2018-11-20T03:14:56.444Z,17.63
2018-11-20T03:17:44.049Z,18.17
2018-11-20T03:20:29.939Z,18.57
2018-11-20T03:23:30.306Z,17.10
2018-11-20T03:26:24.939Z,18.57
2018-11-20T03:29:18.875Z,18.20
2018-11-20T03:32:14.650Z,18.98
2018-11-20T03:35:01.154Z,17.67
2018-11-20T03:37:49.339Z,22.20
2018-11-20T03:40:47.577Z,20.60
2018-11-20T03:43:35.813Z,20.65
2018-11-20T03:46:23.342Z,19.67
2018-11-20T03:49:10.341Z,18.20
2018-11-20T03:51:49.176Z,22.77
2018-11-20T03:54:36.291Z,14.90
2018-11-20T03:57:23.352Z,16.60
2018-11-20T04:00:20.008Z,23.47
2018-11-20T04:03:06.756Z,18.77
2018-11-20T04:06:09.921Z,15.73
2018-11-20T04:09:03.513Z,18.07
2018-11-20T04:11:50.149Z,24.50
2018-11-20T04:14:36.886Z,21.07
2018-11-20T04:17:12.820Z,19.57
2018-11-20T04:19:51.161Z,19.43
2018-11-20T04:22:51.102Z,22.00
2018-11-20T04:25:47.979Z,22.80
2018-11-20T04:28:39.644Z,17.33
2018-11-20T04:31:59.800Z,18.00
2018-11-20T04:34:56.807Z,17.07
2018-11-20T04:37:43.486Z,17.20
2018-11-20T04:40:30.270Z,19.67
2018-11-20T04:43:23.632Z,16.90
2018-11-20T04:46:03.684Z,21.33
2018-11-20T04:48:54.552Z,18.50
2018-11-20T04:51:51.661Z,22.77
2018-11-20T04:54:47.974Z,17.13
2018-11-20T04:57:41.875Z,18.37
2018-11-20T05:00:29.775Z,17.50
2018-11-20T05:03:30.024Z,20.87
2018-11-20T05:09:09.064Z,18.47
2018-11-20T05:11:46.057Z,22.23
2018-11-20T05:14:45.801Z,19.60
2018-11-20T05:17:26.738Z,19.10
2018-11-20T05:20:23.603Z,20.30
2018-11-20T05:23:10.318Z,18.03
2018-11-20T05:26:06.318Z,19.57
2018-11-20T05:28:53.436Z,17.73
2018-11-20T05:31:39.616Z,24.00
2018-11-20T05:34:39.867Z,21.90
2018-11-20T05:37:26.593Z,20.83
2018-11-20T05:40:14.498Z,18.87
2018-11-20T05:43:01.408Z,23.83
2018-11-20T05:45:48.424Z,16.10
2018-11-20T05:48:35.479Z,19.60
2018-11-20T05:51:16.431Z,22.00
2018-11-20T05:54:13.529Z,17.93
2018-11-20T05:57:04.558Z,22.27
2018-11-20T05:59:44.005Z,24.50
2018-11-20T06:02:30.888Z,19.07
2018-11-20T06:05:31.101Z,22.27
2018-11-20T06:08:17.739Z,18.77
2018-11-20T06:11:05.803Z,20.27
2018-11-20T06:14:05.870Z,22.93
2018-11-20T06:17:12.099Z,20.20
2018-11-20T06:20:06.015Z,21.67
2018-11-20T06:23:03.537Z,23.67
2018-11-20T06:25:49.916Z,21.53
2018-11-20T06:28:31.859Z,19.13
2018-11-20T06:31:12.373Z,22.20
2018-11-20T06:34:08.119Z,18.10
2018-11-20T06:36:58.863Z,22.70
2018-11-20T06:39:45.319Z,24.50
2018-11-20T06:42:45.343Z,23.73
2018-11-20T06:45:39.846Z,24.43
2018-11-20T06:48:28.492Z,22.47
2018-11-20T06:51:13.312Z,24.27
2018-11-20T06:53:58.419Z,24.93
2018-11-20T06:56:41.717Z,21.20
2018-11-20T06:59:30.701Z,24.12
2018-11-20T07:02:27.537Z,25.40
2018-11-20T07:05:07.023Z,26.00
2018-11-20T07:07:54.219Z,23.37
2018-11-20T07:10:41.180Z,25.33
2018-11-20T07:13:34.498Z,31.87
2018-11-20T07:16:36.686Z,16.80
2018-11-20T07:19:23.706Z,29.13
2018-11-20T07:22:05.449Z,25.97
2018-11-20T07:25:03.655Z,25.90
2018-11-20T07:27:57.681Z,24.05
2018-11-20T07:30:44.482Z,25.17
2018-11-20T07:33:31.005Z,26.83
2018-11-20T07:36:24.443Z,25.07
2018-11-20T07:39:12.307Z,27.10
2018-11-20T07:41:56.267Z,25.17
2018-11-20T07:44:54.428Z,28.90
2018-11-20T07:47:42.457Z,26.43
2018-11-20T07:50:36.749Z,28.00
2018-11-20T07:53:36.425Z,26.07
2018-11-20T07:56:23.512Z,22.03
2018-11-20T07:59:10.063Z,27.98
2018-11-20T08:02:02.810Z,27.40
2018-11-20T08:04:53.692Z,24.90
2018-11-20T08:07:49.517Z,26.97
2018-11-20T08:10:36.199Z,28.70
2018-11-20T08:13:30.487Z,23.50
2018-11-20T08:16:05.441Z,24.03
2018-11-20T08:19:05.523Z,24.73
2018-11-20T08:21:52.046Z,26.23
2018-11-20T08:24:38.995Z,30.20
2018-11-20T08:27:27.699Z,25.65
2018-11-20T08:30:15.525Z,25.47
2018-11-20T08:33:15.957Z,27.10
2018-11-20T08:36:03.919Z,27.80
2018-11-20T08:39:03.833Z,26.40
2018-11-20T08:41:53.431Z,23.85
2018-11-20T08:44:51.902Z,27.33
2018-11-20T08:47:49.991Z,27.73
2018-11-20T08:50:44.017Z,30.93
2018-11-20T08:53:35.395Z,23.03
2018-11-20T08:56:35.413Z,29.13
2018-11-20T08:59:13.439Z,26.40
2018-11-20T09:01:59.665Z,27.17
2018-11-20T09:04:50.379Z,23.43
2018-11-20T09:07:32.350Z,28.75
2018-11-20T09:10:21.522Z,29.40
2018-11-20T09:13:15.704Z,30.20
2018-11-20T09:15:55.875Z,28.03
2018-11-20T09:18:50.199Z,27.57
2018-11-20T09:21:38.020Z,30.47
2018-11-20T09:24:24.601Z,27.70
2018-11-20T09:27:21.389Z,22.57
2018-11-20T09:30:21.833Z,28.37
2018-11-20T09:33:02.788Z,21.43
2018-11-20T09:35:49.608Z,26.13
2018-11-20T09:38:31.429Z,24.90
2018-11-20T09:41:37.878Z,25.97
2018-11-20T09:44:51.794Z,24.17
2018-11-20T09:47:46.658Z,25.23
2018-11-20T09:50:44.133Z,24.47
2018-11-20T09:53:27.759Z,24.07
2018-11-20T09:56:28.034Z,26.80
2018-11-20T09:59:14.678Z,28.30
2018-11-20T10:01:58.630Z,27.77
2018-11-20T10:04:55.743Z,23.93
2018-11-20T10:07:48.283Z,24.23
2018-11-20T10:10:48.340Z,26.47
2018-11-20T10:13:48.738Z,22.40
2018-11-20T10:16:36.347Z,23.80
2018-11-20T10:19:27.564Z,19.92
2018-11-20T10:22:14.379Z,25.57
2018-11-20T10:25:14.544Z,24.97
2018-11-20T10:28:11.607Z,26.10
2018-11-20T10:31:18.019Z,27.50
2018-11-20T10:34:16.885Z,25.67
2018-11-20T10:37:07.486Z,29.73
2018-11-20T10:39:54.516Z,28.13
2018-11-20T10:42:37.942Z,25.67
2018-11-20T10:45:25.223Z,26.13
2018-11-20T10:48:31.150Z,26.90
2018-11-20T10:51:18.128Z,26.10
2018-11-20T10:54:04.820Z,28.63
2018-11-20T10:56:59.160Z,27.48
2018-11-20T10:59:47.309Z,25.20
2018-11-20T11:02:34.149Z,23.40
2018-11-20T11:05:21.008Z,25.60
2018-11-20T11:08:15.192Z,27.10
2018-11-20T11:10:50.549Z,26.63
2018-11-20T11:13:37.111Z,26.67
2018-11-20T11:16:23.822Z,28.10
2018-11-20T11:19:19.354Z,24.83
2018-11-20T11:22:06.670Z,25.05
2018-11-20T11:24:53.690Z,26.87
2018-11-20T11:27:41.741Z,28.67
2018-11-20T11:30:28.392Z,27.02
2018-11-20T11:33:35.598Z,26.53
2018-11-20T11:36:15.784Z,27.80
2018-11-20T11:38:50.800Z,25.97
2018-11-20T11:41:44.534Z,30.50
2018-11-20T11:44:32.781Z,25.68
2018-11-20T11:47:19.598Z,20.23
2018-11-20T11:50:25.885Z,24.83
2018-11-20T11:53:12.737Z,27.83
2018-11-20T11:56:12.991Z,28.47
2018-11-20T11:58:52.305Z,22.53
2018-11-20T12:04:29.211Z,27.20
2018-11-20T12:07:32.454Z,26.87
2018-11-20T12:10:36.387Z,26.57
2018-11-20T12:13:24.216Z,26.17
2018-11-20T12:16:18.381Z,26.10
2018-11-20T12:19:12.329Z,29.13
2018-11-20T12:21:58.838Z,34.03
2018-11-20T12:24:47.349Z,24.83
2018-11-20T12:27:41.042Z,29.57
2018-11-20T12:30:18.228Z,29.60
2018-11-20T12:33:09.042Z,27.20
2018-11-20T12:35:56.596Z,23.50
2018-11-20T12:38:50.223Z,29.03
2018-11-20T12:41:30.157Z,28.80
2018-11-20T12:44:20.151Z,37.47
2018-11-20T12:47:09.349Z,29.07
2018-11-20T12:49:54.782Z,30.17
2018-11-20T12:52:41.261Z,25.70
2018-11-20T12:55:28.378Z,32.53
2018-11-20T12:58:25.600Z,28.77
2018-11-20T13:01:15.016Z,29.43
2018-11-20T13:04:02.402Z,31.63
2018-11-20T13:06:46.911Z,30.72
2018-11-20T13:09:43.211Z,31.07
2018-11-20T13:12:29.592Z,26.60
2018-11-20T13:15:23.507Z,33.03
2018-11-20T13:18:11.020Z,31.50
2018-11-20T13:20:57.043Z,25.83
2018-11-20T13:23:49.910Z,26.60
2018-11-20T13:26:37.842Z,32.77
2018-11-20T13:29:24.447Z,24.60
2018-11-20T13:32:05.081Z,34.65
2018-11-20T13:34:53.111Z,30.97
2018-11-20T13:37:35.616Z,30.83
2018-11-20T13:40:19.732Z,29.87
2018-11-20T13:42:59.637Z,32.27
2018-11-20T13:45:56.539Z,31.47
2018-11-20T13:48:53.248Z,27.57
2018-11-20T13:51:56.417Z,22.07
2018-11-20T13:54:47.043Z,26.13
2018-11-20T13:57:47.291Z,32.40
2018-11-20T14:00:29.299Z,36.23
2018-11-20T14:03:29.246Z,27.33
2018-11-20T14:06:17.551Z,25.77
2018-11-20T14:09:09.619Z,22.17
2018-11-20T14:11:47.386Z,28.20
2018-11-20T14:14:25.015Z,22.03
2018-11-20T14:17:25.975Z,28.37
2018-11-20T14:20:06.934Z,27.13
2018-11-20T14:23:03.265Z,20.30
2018-11-20T14:25:50.351Z,24.10
2018-11-20T14:28:28.867Z,24.87
2018-11-20T14:31:11.677Z,18.80
2018-11-20T14:34:02.466Z,19.82
2018-11-20T14:37:09.078Z,20.97
2018-11-20T14:39:57.793Z,19.73
2018-11-20T14:42:50.491Z,21.47
2018-11-20T14:45:41.415Z,22.00
2018-11-20T14:48:22.368Z,17.27
2018-11-20T14:51:17.644Z,20.63
2018-11-20T14:54:00.432Z,18.83
2018-11-20T14:56:47.572Z,21.60
2018-11-20T14:59:34.766Z,18.90
2018-11-20T15:02:36.724Z,20.48
2018-11-20T15:05:31.619Z,17.83
2018-11-20T15:08:28.473Z,16.27
2018-11-20T15:11:25.886Z,15.93
2018-11-20T15:14:12.573Z,11.67
2018-11-20T15:16:49.938Z,18.07
2018-11-20T15:19:36.676Z,20.33
2018-11-20T15:22:27.769Z,17.40
2018-11-20T15:25:18.398Z,22.73
2018-11-20T15:28:09.126Z,19.83
2018-11-20T15:30:59.747Z,18.30
2018-11-20T15:33:41.197Z,20.17
2018-11-20T15:36:30.941Z,21.47
2018-11-20T15:39:12.675Z,22.47
2018-11-20T15:41:53.163Z,19.10
2018-11-20T15:44:41.174Z,24.23
2018-11-20T15:47:32.568Z,22.67
2018-11-20T15:50:38.748Z,27.20
2018-11-20T15:53:25.605Z,23.33
2018-11-20T15:56:08.918Z,19.37
2018-11-20T15:58:55.718Z,22.37
2018-11-20T16:01:42.385Z,23.97
2018-11-20T16:04:20.589Z,21.77
2018-11-20T16:07:01.801Z,22.23
2018-11-20T16:10:03.733Z,24.27
2018-11-20T16:12:50.479Z,16.73
2018-11-20T16:15:37.145Z,22.07
2018-11-20T16:18:21.586Z,24.80
2018-11-20T16:21:12.281Z,25.50
2018-11-20T16:24:15.591Z,23.97
2018-11-20T16:27:02.149Z,25.53
2018-11-20T16:29:59.239Z,23.83
2018-11-20T16:32:40.362Z,29.03
2018-11-20T16:35:29.071Z,22.53
2018-11-20T16:38:16.993Z,24.73
2018-11-20T16:41:02.746Z,24.30
2018-11-20T16:43:52.002Z,18.20
2018-11-20T16:46:43.375Z,23.27
2018-11-20T16:49:30.532Z,22.82
2018-11-20T16:52:18.562Z,25.07
2018-11-20T16:55:18.911Z,21.60
2018-11-20T16:58:05.757Z,23.80
2018-11-20T17:01:01.780Z,21.67
2018-11-20T17:03:49.851Z,22.03
2018-11-20T17:06:44.051Z,22.67
2018-11-20T17:09:28.674Z,20.30
2018-11-20T17:12:08.839Z,22.87
2018-11-20T17:15:09.090Z,22.13
2018-11-20T17:17:56.023Z,24.07
2018-11-20T17:20:34.482Z,20.67
2018-11-20T17:23:34.641Z,18.17
2018-11-20T17:26:16.151Z,20.67
2018-11-20T17:29:07.069Z,21.70
2018-11-20T17:31:55.239Z,20.80
2018-11-20T17:34:42.250Z,22.20
2018-11-20T17:37:23.730Z,20.77
2018-11-20T17:40:11.945Z,19.77
2018-11-20T17:43:05.147Z,17.97
2018-11-20T17:45:53.248Z,16.60
2018-11-20T17:48:39.808Z,21.47
2018-11-20T17:51:37.268Z,21.07
2018-11-20T17:54:23.315Z,19.30
2018-11-20T17:57:26.911Z,19.83
2018-11-20T18:00:24.315Z,18.80
2018-11-20T18:03:12.450Z,17.30
2018-11-20T18:06:01.064Z,19.53
2018-11-20T18:08:47.694Z,20.43
2018-11-20T18:11:31.272Z,19.97
2018-11-20T18:14:11.303Z,17.27
2018-11-20T18:17:00.348Z,19.07
2018-11-20T18:19:54.720Z,17.53
2018-11-20T18:22:57.869Z,19.47
2018-11-20T18:26:00.823Z,20.70
2018-11-20T18:28:47.787Z,19.50
2018-11-20T18:31:43.795Z,18.53
2018-11-20T18:34:30.547Z,17.47
2018-11-20T18:37:12.747Z,12.77
2018-11-20T18:40:00.847Z,18.33
2018-11-20T18:42:50.671Z,16.77
2018-11-20T18:45:47.691Z,18.15
2018-11-20T18:48:32.104Z,19.77
2018-11-20T18:51:18.762Z,19.03
2018-11-20T18:54:19.184Z,18.27
2018-11-20T18:57:07.139Z,18.60
2018-11-20T18:59:49.005Z,18.07
2018-11-20T19:02:43.238Z,17.90
2018-11-20T19:05:31.480Z,19.17
2018-11-20T19:08:22.808Z,15.43
2018-11-20T19:11:19.391Z,18.70
2018-11-20T19:14:13.285Z,19.87
2018-11-20T19:16:58.946Z,20.73
2018-11-20T19:19:56.540Z,19.47
2018-11-20T19:22:43.129Z,23.10
2018-11-20T19:25:26.222Z,19.53
2018-11-20T19:28:13.227Z,22.95
2018-11-20T19:31:14.186Z,20.50
2018-11-20T19:33:56.971Z,22.07
2018-11-20T19:36:46.971Z,21.73
2018-11-20T19:39:53.470Z,16.80
2018-11-20T19:42:40.397Z,22.20
2018-11-20T19:45:27.243Z,21.53
2018-11-20T19:48:13.840Z,22.82
2018-11-20T19:51:01.416Z,21.30
2018-11-20T19:53:49.510Z,21.57
2018-11-20T19:56:36.285Z,21.43
2018-11-20T19:59:27.474Z,22.57
2018-11-20T20:02:14.270Z,22.93
2018-11-20T20:05:01.418Z,24.23
2018-11-20T20:07:54.764Z,23.45
2018-11-20T20:10:36.367Z,20.25
2018-11-20T20:13:27.675Z,17.53
2018-11-20T20:16:14.778Z,22.73
2018-11-20T20:19:01.459Z,24.03
2018-11-20T20:21:48.484Z,25.40
2018-11-20T20:24:35.710Z,26.53
2018-11-20T20:27:24.414Z,25.90
2018-11-20T20:30:24.617Z,24.37
2018-11-20T20:33:21.796Z,23.23
2018-11-20T20:36:01.781Z,27.73
2018-11-20T20:38:48.718Z,26.90
2018-11-20T20:41:39.915Z,26.03
2018-11-20T20:44:26.636Z,28.20
2018-11-20T20:47:22.173Z,26.57
2018-11-20T20:50:28.623Z,26.57
2018-11-20T20:53:16.658Z,24.12
2018-11-20T20:56:04.389Z,23.70
2018-11-20T20:58:58.020Z,25.37
2018-11-20T21:01:49.529Z,26.17
2018-11-20T21:04:37.238Z,27.93
2018-11-20T21:07:18.708Z,31.43
2018-11-20T21:10:00.058Z,29.73
2018-11-20T21:12:40.465Z,24.18
2018-11-20T21:15:40.285Z,32.27
2018-11-20T21:18:34.383Z,32.40
2018-11-20T21:21:20.476Z,30.20
2018-11-20T21:24:07.396Z,33.30
2018-11-20T21:27:13.609Z,30.60
2018-11-20T21:30:00.363Z,29.43
2018-11-20T21:32:55.454Z,33.03
2018-11-20T21:35:46.783Z,36.28
2018-11-20T21:38:33.811Z,30.87
2018-11-20T21:41:20.667Z,34.13
2018-11-20T21:43:58.638Z,31.53
2018-11-20T21:46:49.354Z,32.90
2018-11-20T21:49:46.585Z,31.40
2018-11-20T21:52:40.574Z,31.23
2018-11-20T21:55:34.688Z,37.95
2018-11-20T21:58:21.340Z,34.05
2018-11-20T22:01:10.698Z,32.05
2018-11-20T22:03:57.656Z,31.70
2018-11-20T22:06:50.366Z,31.07
2018-11-20T22:09:38.531Z,33.23
2018-11-20T22:12:26.455Z,32.85
2018-11-20T22:15:13.580Z,30.23
2018-11-20T22:18:09.438Z,38.20
2018-11-20T22:20:54.486Z,40.93
2018-11-20T22:23:30.456Z,35.67
2018-11-20T22:26:21.275Z,35.60
2018-11-20T22:29:11.884Z,39.30
2018-11-20T22:32:09.850Z,32.27
2018-11-20T22:34:57.097Z,38.27
2018-11-20T22:37:53.983Z,33.47
2018-11-20T22:40:30.929Z,32.73
2018-11-20T22:43:23.509Z,32.80
2018-11-20T22:46:23.778Z,34.90
2018-11-20T22:49:08.606Z,34.78
2018-11-20T22:51:56.688Z,33.97
2018-11-20T22:54:42.767Z,31.05
2018-11-20T22:57:49.724Z,32.97
2018-11-20T23:00:37.895Z,33.57
2018-11-20T23:03:25.883Z,34.40
2018-11-20T23:06:06.068Z,32.13
2018-11-20T23:08:35.075Z,31.37
2018-11-20T23:11:03.966Z,32.20
2018-11-20T23:13:33.197Z,31.30
2018-11-20T23:16:02.387Z,30.70
2018-11-20T23:18:31.346Z,33.13
2018-11-20T23:21:00.184Z,35.43
2018-11-20T23:23:29.069Z,32.13
2018-11-20T23:25:57.976Z,31.47
2018-11-20T23:28:26.961Z,30.80
2018-11-20T23:30:55.819Z,26.73
2018-11-20T23:33:25.100Z,33.08
2018-11-20T23:35:54.210Z,29.87
2018-11-20T23:38:23.169Z,34.80
2018-11-20T23:40:52.154Z,32.53
2018-11-20T23:43:20.961Z,28.50
2018-11-20T23:45:49.883Z,28.77
2018-11-20T23:48:18.759Z,30.90
2018-11-20T23:50:47.578Z,31.57
2018-11-20T23:53:16.586Z,32.27
2018-11-20T23:55:45.755Z,24.20
2018-11-20T23:58:14.882Z,34.90
